Time;durP1;ratioP1;P1;durP2;ratioP2;P2;SDS_P1;SDS_P2;PMS_P1;PMS_P2;Temp;Humidity;BMP_temperature;BMP_pressure;BME280_temperature;BME280_humidity;BME280_pressure;Samples;Min_cycle;Max_cycle;Signal;HPM_P1;HPM_P2
2021/05/06 00:32:21;;;;;;;3.97;1.30;;;;;;;;;;5110847;28;20027;-71
2021/05/06 00:34:47;;;;;;;3.60;1.25;;;;;;;;;;5109327;28;20114;-70
2021/05/06 00:37:16;;;;;;;5.70;1.92;;;;;;;;;;5110080;28;20038;-71
2021/05/06 00:39:56;;;;;;;2.85;1.50;;;;;;;;;;5110298;28;20107;-71
2021/05/06 00:42:32;;;;;;;2.50;1.20;;;;;;;;;;5110345;28;20016;-71
2021/05/06 00:56:59;;;;;;;4.35;1.13;;;;;;;;;;5110602;28;20537;-70
2021/05/06 01:06:23;;;;;;;1.85;1.02;;;;;;;;;;5110062;27;20381;-70
2021/05/06 01:13:26;;;;;;;1.73;0.80;;;;;;;;;;5069540;28;20029;-69
2021/05/06 01:15:52;;;;;;;5.25;1.30;;;;;;;;;;5070033;28;20032;-69
2021/05/06 01:18:19;;;;;;;3.65;1.45;;;;;;;;;;5068548;28;20021;-70
2021/05/06 01:22:28;;;;;;;3.35;1.13;;;;;;;;;;5110458;27;20780;-69
2021/05/06 01:27:11;;;;;;;2.15;1.30;;;;;;;;;;5110075;27;20381;-70
2021/05/06 01:29:44;;;;;;;5.05;1.35;;;;;;;;;;5109142;28;20036;-70
2021/05/06 01:35:12;;;;;;;4.18;1.70;;;;;;;;;;5131148;27;20195;-70
2021/05/06 01:58:34;;;;;;;3.65;1.42;;;;;;;;;;5110419;27;20385;-70
2021/05/06 02:01:07;;;;;;;2.13;1.10;;;;;;;;;;5110153;28;20052;-70
2021/05/06 02:03:36;;;;;;;3.88;1.50;;;;;;;;;;5110486;28;20046;-70
2021/05/06 02:06:04;;;;;;;2.33;1.65;;;;;;;;;;5110351;28;20088;-70
2021/05/06 02:08:30;;;;;;;3.78;0.90;;;;;;;;;;5109885;28;20103;-70
2021/05/06 02:11:01;;;;;;;6.18;1.63;;;;;;;;;;5110316;28;20028;-70
2021/05/06 02:14:11;;;;;;;1.13;0.98;;;;;;;;;;5110600;27;20888;-69
2021/05/06 02:20:20;;;;;;;3.65;1.25;;;;;;;;;;5110445;27;20377;-70
2021/05/06 02:24:31;;;;;;;6.68;1.55;;;;;;;;;;5110549;27;20385;-70
2021/05/06 02:26:57;;;;;;;4.05;1.42;;;;;;;;;;5109201;28;20035;-70
2021/05/06 02:29:49;;;;;;;2.35;1.30;;;;;;;;;;5114837;27;1133491;-70
2021/05/06 02:32:15;;;;;;;3.72;1.27;;;;;;;;;;5129687;28;20038;-70
2021/05/06 02:34:42;;;;;;;2.30;1.33;;;;;;;;;;5131158;28;20026;-70
2021/05/06 02:37:41;;;;;;;5.03;1.42;;;;;;;;;;5029887;28;20474;-70
2021/05/06 02:40:46;;;;;;;3.88;1.10;;;;;;;;;;5110470;27;20410;-70
2021/05/06 02:43:13;;;;;;;3.08;1.45;;;;;;;;;;5110290;28;20035;-69
2021/05/06 02:47:22;;;;;;;4.00;1.40;;;;;;;;;;5110549;27;20385;-70
2021/05/06 02:54:24;;;;;;;5.75;1.52;;;;;;;;;;5110591;27;20430;-70
2021/05/06 03:03:18;;;;;;;2.72;1.17;;;;;;;;;;5110519;27;20381;-70
2021/05/06 03:05:50;;;;;;;6.47;1.77;;;;;;;;;;5110189;28;20073;-70
2021/05/06 03:08:25;;;;;;;7.57;1.50;;;;;;;;;;5110452;28;20024;-70
2021/05/06 03:25:07;;;;;;;4.78;1.60;;;;;;;;;;5110384;28;20043;-69
2021/05/06 03:27:37;;;;;;;1.90;1.33;;;;;;;;;;5110370;28;20120;-72
2021/05/06 03:49:27;;;;;;;5.45;1.80;;;;;;;;;;5110413;28;20067;-72
2021/05/06 04:17:05;;;;;;;2.58;1.30;;;;;;;;;;5110545;27;20385;-71
2021/05/06 04:37:35;;;;;;;2.40;1.30;;;;;;;;;;5131000;28;20430;-71
2021/05/06 04:40:04;;;;;;;5.68;2.10;;;;;;;;;;5130958;28;20030;-71
2021/05/06 04:45:24;;;;;;;8.57;1.97;;;;;;;;;;5130919;28;20019;-71
2021/05/06 04:54:25;;;;;;;4.57;1.88;;;;;;;;;;5131196;28;20082;-71
2021/05/06 05:06:23;;;;;;;4.13;1.67;;;;;;;;;;5106090;27;20437;-75
2021/05/06 05:13:25;;;;;;;4.55;1.75;;;;;;;;;;5109434;27;20430;-77
2021/05/06 05:18:49;;;;;;;4.53;1.58;;;;;;;;;;5113192;28;20039;-74
2021/05/06 05:24:03;;;;;;;6.22;2.58;;;;;;;;;;5128606;28;20043;-83
2021/05/06 05:26:29;;;;;;;3.33;1.23;;;;;;;;;;5123272;28;20055;-69
2021/05/06 05:28:55;;;;;;;3.90;1.80;;;;;;;;;;5129736;28;20085;-69
2021/05/06 05:31:22;;;;;;;5.22;2.28;;;;;;;;;;5127745;28;20027;-68
2021/05/06 05:39:20;;;;;;;9.60;2.15;;;;;;;;;;5109486;27;20385;-68
2021/05/06 05:58:51;;;;;;;3.00;1.38;;;;;;;;;;5108248;27;20377;-68
2021/05/06 06:02:07;;;;;;;8.05;1.80;;;;;;;;;;5106857;27;20437;-67
2021/05/06 06:04:34;;;;;;;4.10;1.30;;;;;;;;;;5099021;28;20443;-66
2021/05/06 06:07:00;;;;;;;8.63;2.47;;;;;;;;;;5106952;28;20746;-68
2021/05/06 06:09:26;;;;;;;6.18;1.95;;;;;;;;;;5106769;28;20024;-69
2021/05/06 06:11:52;;;;;;;8.98;2.95;;;;;;;;;;5106536;28;20023;-69
2021/05/06 06:14:26;;;;;;;7.05;1.70;;;;;;;;;;5108117;28;20030;-67
2021/05/06 06:18:48;;;;;;;5.00;1.35;;;;;;;;;;5107496;27;20442;-67
2021/05/06 06:23:55;;;;;;;4.80;1.50;;;;;;;;;;5106648;28;20116;-71
2021/05/06 06:26:21;;;;;;;3.65;1.55;;;;;;;;;;5103008;28;20020;-72
2021/05/06 06:31:28;;;;;;;3.60;1.17;;;;;;;;;;5106433;27;20473;-71
2021/05/06 06:33:56;;;;;;;6.22;1.40;;;;;;;;;;5106922;28;20081;-70
2021/05/06 06:36:50;;;;;;;4.68;1.52;;;;;;;;;;5067369;28;20395;-76
2021/05/06 06:39:16;;;;;;;9.30;1.40;;;;;;;;;;5051174;28;20036;-74
2021/05/06 06:41:43;;;;;;;5.70;1.42;;;;;;;;;;5046934;28;20101;-75
2021/05/06 06:44:11;;;;;;;2.40;1.10;;;;;;;;;;5043351;28;20036;-73
2021/05/06 06:46:38;;;;;;;4.30;1.13;;;;;;;;;;5049184;28;20520;-73
2021/05/06 06:49:04;;;;;;;3.20;1.42;;;;;;;;;;5051857;28;20048;-71
2021/05/06 06:53:16;;;;;;;2.90;1.23;;;;;;;;;;5079692;28;20561;-71
2021/05/06 06:55:43;;;;;;;6.15;1.25;;;;;;;;;;5064759;28;20493;-73
2021/05/06 06:58:14;;;;;;;4.85;1.45;;;;;;;;;;5064932;28;20098;-72
2021/05/06 07:01:02;;;;;;;9.63;2.00;;;;;;;;;;5068033;28;20020;-79
2021/05/06 07:03:29;;;;;;;5.40;1.90;;;;;;;;;;5068013;28;20028;-82
2021/05/06 07:05:56;;;;;;;8.00;2.05;;;;;;;;;;5048202;28;20836;-83
2021/05/06 07:08:25;;;;;;;6.28;2.20;;;;;;;;;;5057019;28;20037;-79
2021/05/06 07:10:56;;;;;;;5.25;1.40;;;;;;;;;;5067663;28;20032;-83
2021/05/06 07:13:23;;;;;;;6.32;1.38;;;;;;;;;;5068004;28;20066;-83
2021/05/06 07:15:55;;;;;;;9.75;2.20;;;;;;;;;;5066903;28;20012;-78
2021/05/06 07:18:28;;;;;;;6.35;2.25;;;;;;;;;;5065910;28;20128;-79
2021/05/06 07:22:52;;;;;;;7.05;2.17;;;;;;;;;;5051673;28;20447;-82
2021/05/06 07:25:19;;;;;;;12.48;2.53;;;;;;;;;;5048958;28;20043;-81
2021/05/06 07:27:46;;;;;;;7.60;1.52;;;;;;;;;;5031042;28;20032;-78
2021/05/06 07:30:14;;;;;;;7.15;1.73;;;;;;;;;;5047932;28;20124;-82
2021/05/06 07:36:32;;;;;;;7.13;1.70;;;;;;;;;;5017671;28;20983;-81
2021/05/06 07:39:23;;;;;;;3.85;1.27;;;;;;;;;;5067819;28;20374;-78
2021/05/06 07:43:18;;;;;;;4.70;1.38;;;;;;;;;;5069883;28;20429;-83
2021/05/06 07:45:44;;;;;;;2.88;1.08;;;;;;;;;;5049867;28;20029;-85
2021/05/06 07:48:10;;;;;;;3.65;1.77;;;;;;;;;;5050346;28;20055;-83
2021/05/06 07:50:37;;;;;;;5.00;1.25;;;;;;;;;;5046804;28;20063;-80
2021/05/06 07:53:10;;;;;;;5.43;1.10;;;;;;;;;;5050376;28;20048;-82
2021/05/06 07:55:38;;;;;;;2.53;1.00;;;;;;;;;;5049782;28;20525;-80
2021/05/06 07:58:05;;;;;;;2.83;1.30;;;;;;;;;;5047170;28;20075;-80
2021/05/06 08:00:32;;;;;;;3.22;1.60;;;;;;;;;;5047687;28;20100;-83
2021/05/06 08:02:58;;;;;;;6.18;1.05;;;;;;;;;;5048444;28;20037;-83
2021/05/06 08:05:27;;;;;;;3.75;1.25;;;;;;;;;;5046730;28;20490;-83
2021/05/06 08:07:54;;;;;;;5.10;1.38;;;;;;;;;;5048200;28;20021;-86
2021/05/06 08:10:24;;;;;;;2.92;1.42;;;;;;;;;;5050454;28;20409;-84
2021/05/06 08:12:51;;;;;;;6.80;1.10;;;;;;;;;;5045149;28;20051;-80
2021/05/06 08:15:17;;;;;;;4.63;1.45;;;;;;;;;;5049291;28;20029;-81
2021/05/06 08:17:43;;;;;;;2.35;1.08;;;;;;;;;;5047209;28;20025;-83
2021/05/06 08:21:26;;;;;;;5.65;1.52;;;;;;;;;;5089205;27;20401;-82
2021/05/06 08:23:53;;;;;;;2.97;1.13;;;;;;;;;;5090063;28;20032;-82
2021/05/06 08:26:19;;;;;;;1.95;1.00;;;;;;;;;;5090867;28;20028;-82
2021/05/06 08:30:15;;;;;;;1.15;0.90;;;;;;;;;;5109192;27;20406;-82
2021/05/06 08:34:54;;;;;;;3.95;0.93;;;;;;;;;;5110305;27;20412;-83
2021/05/06 08:37:20;;;;;;;2.25;0.90;;;;;;;;;;5110842;28;20107;-81
2021/05/06 08:39:47;;;;;;;3.15;1.65;;;;;;;;;;5107736;28;20024;-80
2021/05/06 08:42:14;;;;;;;5.70;1.50;;;;;;;;;;5108287;28;20106;-85
2021/05/06 08:44:41;;;;;;;5.63;1.05;;;;;;;;;;5108752;28;20514;-82
2021/05/06 08:47:39;;;;;;;2.85;1.10;;;;;;;;;;5108759;27;20418;-84
2021/05/06 08:51:13;;;;;;;6.28;1.30;;;;;;;;;;5101171;27;20323;-81
2021/05/06 08:53:39;;;;;;;2.17;0.77;;;;;;;;;;5088840;28;20040;-85
2021/05/06 08:56:05;;;;;;;4.32;1.15;;;;;;;;;;5090140;28;20476;-83
2021/05/06 08:58:32;;;;;;;2.50;1.10;;;;;;;;;;5089088;28;20021;-80
2021/05/06 09:00:58;;;;;;;1.15;0.90;;;;;;;;;;5086953;28;20024;-77
2021/05/06 09:03:43;;;;;;;2.38;1.08;;;;;;;;;;5068150;28;20395;-77
2021/05/06 09:06:12;;;;;;;2.25;0.77;;;;;;;;;;5067899;28;20023;-76
2021/05/06 09:08:40;;;;;;;3.88;1.10;;;;;;;;;;5065788;28;20021;-75
2021/05/06 09:11:07;;;;;;;2.75;1.15;;;;;;;;;;5067756;28;20021;-76
2021/05/06 09:13:34;;;;;;;2.33;0.93;;;;;;;;;;5065132;28;20039;-79
2021/05/06 09:17:06;;;;;;;2.33;1.05;;;;;;;;;;5106091;27;20458;-75
2021/05/06 09:19:33;;;;;;;5.55;1.30;;;;;;;;;;5107191;28;20376;-75
2021/05/06 09:22:13;;;;;;;4.65;0.90;;;;;;;;;;5067015;28;20415;-76
2021/05/06 09:24:40;;;;;;;4.10;0.93;;;;;;;;;;5067776;28;20485;-76
2021/05/06 09:27:06;;;;;;;2.08;0.75;;;;;;;;;;5066154;28;20028;-77
2021/05/06 09:29:37;;;;;;;5.05;1.40;;;;;;;;;;5067013;28;20044;-74
2021/05/06 09:32:14;;;;;;;3.03;1.23;;;;;;;;;;5066116;28;20017;-76
2021/05/06 09:34:42;;;;;;;5.70;1.23;;;;;;;;;;5067683;28;20017;-82
2021/05/06 09:37:09;;;;;;;5.22;1.25;;;;;;;;;;5064970;28;20029;-75
2021/05/06 09:39:40;;;;;;;1.98;0.80;;;;;;;;;;5064063;28;20033;-76
2021/05/06 09:42:10;;;;;;;2.22;1.00;;;;;;;;;;5066622;28;20035;-75
2021/05/06 09:44:55;;;;;;;2.35;1.10;;;;;;;;;;5066615;28;20036;-75
2021/05/06 09:47:22;;;;;;;1.25;0.70;;;;;;;;;;5067891;28;20020;-77
2021/05/06 09:49:50;;;;;;;1.02;0.68;;;;;;;;;;5066947;28;20094;-76
2021/05/06 09:52:54;;;;;;;2.45;0.95;;;;;;;;;;5108852;27;20385;-74
2021/05/06 09:55:20;;;;;;;2.30;1.03;;;;;;;;;;5108912;28;20024;-73
2021/05/06 09:57:46;;;;;;;5.03;1.15;;;;;;;;;;5106896;28;20686;-75
2021/05/06 10:00:13;;;;;;;1.30;0.68;;;;;;;;;;5107057;28;20110;-73
2021/05/06 10:02:39;;;;;;;1.65;0.70;;;;;;;;;;5108736;28;20050;-72
2021/05/06 10:05:07;;;;;;;2.45;0.90;;;;;;;;;;5104530;28;20030;-74
2021/05/06 10:07:34;;;;;;;1.95;0.90;;;;;;;;;;5107878;28;20078;-73
2021/05/06 10:10:01;;;;;;;4.80;1.13;;;;;;;;;;5109076;28;20388;-72
2021/05/06 10:12:28;;;;;;;4.32;1.02;;;;;;;;;;5107983;28;20039;-75
2021/05/06 10:14:56;;;;;;;1.80;0.77;;;;;;;;;;5107287;28;20027;-73
2021/05/06 10:17:23;;;;;;;9.85;0.93;;;;;;;;;;5107637;28;20042;-79
2021/05/06 10:19:50;;;;;;;1.13;0.70;;;;;;;;;;5107946;28;20107;-76
2021/05/06 10:22:17;;;;;;;1.63;0.77;;;;;;;;;;5108498;28;20024;-77
2021/05/06 10:24:44;;;;;;;3.22;0.77;;;;;;;;;;5107315;28;20132;-78
2021/05/06 10:27:12;;;;;;;1.60;0.82;;;;;;;;;;5104980;28;20064;-77
2021/05/06 10:29:38;;;;;;;1.20;0.60;;;;;;;;;;5107963;28;20020;-79
2021/05/06 10:32:06;;;;;;;1.52;0.73;;;;;;;;;;5105211;28;20039;-77
2021/05/06 10:34:33;;;;;;;2.75;1.08;;;;;;;;;;5103440;28;20075;-74
2021/05/06 10:37:00;;;;;;;1.63;0.90;;;;;;;;;;5108211;28;20111;-76
2021/05/06 10:39:36;;;;;;;3.08;0.70;;;;;;;;;;5107465;28;20063;-79
2021/05/06 10:42:22;;;;;;;3.30;1.70;;;;;;;;;;5104519;28;20016;-81
2021/05/06 10:44:48;;;;;;;1.35;0.80;;;;;;;;;;5104536;28;20576;-74
2021/05/06 10:47:20;;;;;;;2.63;0.90;;;;;;;;;;5108266;28;20032;-74
2021/05/06 10:49:46;;;;;;;2.47;0.90;;;;;;;;;;5103234;28;20491;-73
2021/05/06 10:52:14;;;;;;;5.57;1.23;;;;;;;;;;5107405;28;20088;-71
2021/05/06 10:54:47;;;;;;;2.42;0.77;;;;;;;;;;5107941;28;20480;-71
2021/05/06 10:57:19;;;;;;;3.42;1.02;;;;;;;;;;5105234;28;20577;-72
2021/05/06 10:59:45;;;;;;;1.80;0.95;;;;;;;;;;5106475;28;20107;-73
2021/05/06 11:02:12;;;;;;;1.15;0.60;;;;;;;;;;5103453;28;20048;-75
2021/05/06 11:04:42;;;;;;;2.53;0.80;;;;;;;;;;5093071;28;20221;-71
2021/05/06 11:07:20;;;;;;;1.90;0.60;;;;;;;;;;5094506;28;20028;-73
2021/05/06 11:09:47;;;;;;;2.90;1.20;;;;;;;;;;5087904;28;20027;-73
2021/05/06 11:12:17;;;;;;;1.50;0.60;;;;;;;;;;5089016;28;20028;-74
2021/05/06 11:15:02;;;;;;;2.60;0.73;;;;;;;;;;5089551;28;20024;-74
2021/05/06 11:17:41;;;;;;;2.28;0.95;;;;;;;;;;5094444;28;20024;-76
2021/05/06 11:20:10;;;;;;;2.90;0.98;;;;;;;;;;5094571;28;20049;-75
2021/05/06 11:22:43;;;;;;;2.05;0.60;;;;;;;;;;5092748;28;20020;-73
2021/05/06 11:25:09;;;;;;;;;;;;;;;;;;5093400;28;20028;-77
2021/05/06 11:27:35;;;;;;;1.42;0.68;;;;;;;;;;5094878;28;19904;-74
2021/05/06 11:30:20;;;;;;;3.03;0.80;;;;;;;;;;5094364;28;20028;-74
2021/05/06 11:32:50;;;;;;;5.13;1.27;;;;;;;;;;5092355;28;20024;-74
2021/05/06 11:35:16;;;;;;;3.22;0.88;;;;;;;;;;5094088;28;20028;-75
2021/05/06 11:37:51;;;;;;;5.45;1.30;;;;;;;;;;5094090;28;20016;-80
2021/05/06 11:40:22;;;;;;;2.38;0.80;;;;;;;;;;5095274;28;20020;-77
2021/05/06 11:42:49;;;;;;;1.95;0.73;;;;;;;;;;5112050;28;20039;-81
2021/05/06 11:45:22;;;;;;;1.65;0.75;;;;;;;;;;5111706;28;20070;-84
2021/05/06 11:47:48;;;;;;;1.90;0.77;;;;;;;;;;5100124;28;20024;-75
2021/05/06 11:50:33;;;;;;;2.60;0.93;;;;;;;;;;5093228;28;20098;-77
2021/05/06 11:53:01;;;;;;;4.25;1.25;;;;;;;;;;5093711;28;20533;-75
2021/05/06 11:55:28;;;;;;;3.60;1.02;;;;;;;;;;5092946;28;20145;-74
2021/05/06 11:57:54;;;;;;;3.08;0.75;;;;;;;;;;5096057;28;20492;-76
2021/05/06 12:00:25;;;;;;;3.60;0.80;;;;;;;;;;5091030;28;20055;-76
2021/05/06 12:03:05;;;;;;;3.40;0.73;;;;;;;;;;5093033;28;20055;-75
2021/05/06 12:06:10;;;;;;;1.30;0.70;;;;;;;;;;5091891;28;20592;-76
2021/05/06 12:08:46;;;;;;;3.28;1.08;;;;;;;;;;5029331;28;20025;-75
2021/05/06 12:11:13;;;;;;;2.47;0.70;;;;;;;;;;5029500;28;20148;-76
2021/05/06 12:13:43;;;;;;;1.95;0.60;;;;;;;;;;5063141;28;20043;-75
2021/05/06 12:16:12;;;;;;;3.22;0.80;;;;;;;;;;5092601;28;20684;-75
2021/05/06 12:18:39;;;;;;;2.42;0.80;;;;;;;;;;5092419;28;20453;-75
2021/05/06 12:21:05;;;;;;;2.90;0.80;;;;;;;;;;5092113;28;20024;-75
2021/05/06 12:23:32;;;;;;;2.15;0.60;;;;;;;;;;5093477;28;20028;-75
2021/05/06 12:25:58;;;;;;;3.15;0.93;;;;;;;;;;5093958;28;20028;-75
2021/05/06 12:28:25;;;;;;;2.88;1.25;;;;;;;;;;5093324;28;20028;-76
2021/05/06 12:30:58;;;;;;;2.90;0.60;;;;;;;;;;5093268;28;20039;-75
2021/05/06 12:33:29;;;;;;;2.45;0.75;;;;;;;;;;5093482;28;20016;-75
2021/05/06 12:35:55;;;;;;;2.13;1.27;;;;;;;;;;5093403;28;20035;-76
2021/05/06 12:38:22;;;;;;;1.60;0.68;;;;;;;;;;5093589;28;20027;-76
2021/05/06 12:40:48;;;;;;;2.53;0.70;;;;;;;;;;5093315;28;20023;-76
2021/05/06 12:43:27;;;;;;;1.70;0.68;;;;;;;;;;5093603;28;20434;-76
2021/05/06 12:46:07;;;;;;;1.80;0.93;;;;;;;;;;5093625;28;20103;-76
2021/05/06 12:48:37;;;;;;;1.83;0.40;;;;;;;;;;5093365;28;20028;-76
2021/05/06 12:51:04;;;;;;;0.80;0.65;;;;;;;;;;5093223;28;20492;-75
2021/05/06 12:53:30;;;;;;;1.42;0.65;;;;;;;;;;5093364;28;20036;-75
2021/05/06 12:55:57;;;;;;;3.13;0.98;;;;;;;;;;5092780;28;20016;-75
2021/05/06 12:58:27;;;;;;;2.58;0.70;;;;;;;;;;5091894;28;20028;-74
2021/05/06 13:00:57;;;;;;;3.38;0.77;;;;;;;;;;5093215;28;20028;-75
2021/05/06 13:03:33;;;;;;;4.20;1.13;;;;;;;;;;5091874;28;20445;-75
2021/05/06 13:06:06;;;;;;;1.77;0.73;;;;;;;;;;5093251;28;20032;-75
2021/05/06 13:08:35;;;;;;;3.60;1.02;;;;;;;;;;5093369;28;20054;-75
2021/05/06 13:11:02;;;;;;;4.43;1.77;;;;;;;;;;5092537;28;20034;-75
2021/05/06 13:13:41;;;;;;;4.32;0.80;;;;;;;;;;5092851;28;20035;-75
2021/05/06 13:16:09;;;;;;;1.95;0.80;;;;;;;;;;5092544;28;20083;-75
2021/05/06 13:18:36;;;;;;;2.33;1.00;;;;;;;;;;5092891;28;20044;-75
2021/05/06 13:21:03;;;;;;;1.95;0.77;;;;;;;;;;5093819;28;20021;-74
2021/05/06 13:23:30;;;;;;;1.40;0.45;;;;;;;;;;5092488;28;20494;-75
2021/05/06 13:26:00;;;;;;;3.15;0.77;;;;;;;;;;5092860;28;20063;-76
2021/05/06 13:28:33;;;;;;;2.03;0.55;;;;;;;;;;5093103;28;20127;-76
2021/05/06 13:31:17;;;;;;;1.45;0.60;;;;;;;;;;5092498;28;20036;-75
2021/05/06 13:33:46;;;;;;;3.65;0.88;;;;;;;;;;5092758;28;20530;-75
2021/05/06 13:36:12;;;;;;;2.50;0.65;;;;;;;;;;5092859;28;20020;-75
2021/05/06 13:38:56;;;;;;;1.52;0.70;;;;;;;;;;5092377;28;20072;-76
2021/05/06 13:41:27;;;;;;;2.50;0.50;;;;;;;;;;5092692;28;20054;-75
2021/05/06 13:43:54;;;;;;;1.17;0.77;;;;;;;;;;5092658;28;20086;-76
2021/05/06 13:46:20;;;;;;;2.08;0.50;;;;;;;;;;5091011;28;20077;-75
2021/05/06 13:48:47;;;;;;;1.42;0.65;;;;;;;;;;5092762;28;20111;-75
2021/05/06 13:51:14;;;;;;;1.35;0.70;;;;;;;;;;5091949;28;20086;-75
2021/05/06 13:53:41;;;;;;;2.10;0.75;;;;;;;;;;5092411;28;20024;-76
2021/05/06 13:56:07;;;;;;;1.77;0.68;;;;;;;;;;5092532;28;20024;-76
2021/05/06 13:58:34;;;;;;;1.88;0.73;;;;;;;;;;5092131;28;20552;-76
2021/05/06 14:01:01;;;;;;;1.17;0.60;;;;;;;;;;5092563;28;20071;-75
2021/05/06 14:03:27;;;;;;;4.43;0.98;;;;;;;;;;5092379;28;20380;-76
2021/05/06 14:05:54;;;;;;;2.20;0.85;;;;;;;;;;5090908;28;20035;-75
2021/05/06 14:08:20;;;;;;;2.47;0.98;;;;;;;;;;5092741;28;20032;-76
2021/05/06 14:10:47;;;;;;;1.67;0.65;;;;;;;;;;5092377;28;20043;-77
2021/05/06 14:13:15;;;;;;;0.93;0.40;;;;;;;;;;5090726;28;20016;-75
2021/05/06 14:15:42;;;;;;;1.92;0.82;;;;;;;;;;5092358;28;20016;-75
2021/05/06 14:18:08;;;;;;;2.10;1.08;;;;;;;;;;5092682;28;20024;-75
2021/05/06 14:20:35;;;;;;;2.22;0.73;;;;;;;;;;5092064;28;20025;-75
2021/05/06 14:23:01;;;;;;;2.10;0.77;;;;;;;;;;5091065;28;20110;-75
2021/05/06 14:25:27;;;;;;;2.13;0.80;;;;;;;;;;5092310;28;20031;-76
2021/05/06 14:27:54;;;;;;;3.15;0.88;;;;;;;;;;5092086;28;20040;-75
2021/05/06 14:30:20;;;;;;;2.53;0.70;;;;;;;;;;5092200;28;20124;-75
2021/05/06 14:32:46;;;;;;;2.13;0.80;;;;;;;;;;5090751;28;20131;-76
2021/05/06 14:35:12;;;;;;;1.17;0.70;;;;;;;;;;5091687;28;20020;-76
2021/05/06 14:37:39;;;;;;;3.38;1.35;;;;;;;;;;5092993;28;20039;-74
2021/05/06 14:40:06;;;;;;;1.13;0.55;;;;;;;;;;5095964;28;20675;-75
2021/05/06 14:42:32;;;;;;;2.25;0.63;;;;;;;;;;5095539;28;20048;-74
2021/05/06 14:44:58;;;;;;;1.35;0.50;;;;;;;;;;5095833;28;20024;-74
2021/05/06 14:47:25;;;;;;;4.50;0.82;;;;;;;;;;5095594;28;20027;-73
2021/05/06 14:49:51;;;;;;;1.80;0.80;;;;;;;;;;5095928;28;20028;-74
2021/05/06 14:52:18;;;;;;;4.20;0.60;;;;;;;;;;5095575;28;20050;-74
2021/05/06 14:54:46;;;;;;;1.83;0.65;;;;;;;;;;5095379;28;20070;-74
2021/05/06 14:57:12;;;;;;;2.75;1.00;;;;;;;;;;5095762;28;20016;-75
2021/05/06 14:59:38;;;;;;;2.17;0.68;;;;;;;;;;5095599;28;20051;-74
2021/05/06 15:02:05;;;;;;;2.05;0.70;;;;;;;;;;5093701;28;20053;-74
2021/05/06 15:04:31;;;;;;;2.15;0.70;;;;;;;;;;5095454;28;20095;-75
2021/05/06 15:06:57;;;;;;;5.35;1.77;;;;;;;;;;5095608;28;20371;-75
2021/05/06 15:09:25;;;;;;;1.90;0.80;;;;;;;;;;5095339;28;20024;-75
2021/05/06 15:11:52;;;;;;;0.82;0.50;;;;;;;;;;5095318;28;20024;-74
2021/05/06 15:14:18;;;;;;;2.00;0.75;;;;;;;;;;5095316;28;20012;-74
2021/05/06 15:16:44;;;;;;;1.08;0.40;;;;;;;;;;5093602;28;20604;-74
2021/05/06 15:19:10;;;;;;;1.33;0.55;;;;;;;;;;5095207;28;20028;-73
2021/05/06 15:21:37;;;;;;;1.50;0.90;;;;;;;;;;5095292;28;20032;-74
2021/05/06 15:24:03;;;;;;;2.47;0.93;;;;;;;;;;5093468;28;20111;-73
2021/05/06 15:26:29;;;;;;;3.42;0.77;;;;;;;;;;5095151;28;20028;-74
2021/05/06 15:28:55;;;;;;;1.25;0.65;;;;;;;;;;5095517;28;20027;-74
2021/05/06 15:31:21;;;;;;;1.70;0.82;;;;;;;;;;5094671;28;20077;-74
2021/05/06 15:33:47;;;;;;;2.20;0.52;;;;;;;;;;5095355;28;20035;-75
2021/05/06 15:36:17;;;;;;;2.05;0.77;;;;;;;;;;5094941;28;20099;-75
2021/05/06 15:38:44;;;;;;;1.25;0.68;;;;;;;;;;5094758;28;20020;-75
2021/05/06 15:41:10;;;;;;;1.98;0.90;;;;;;;;;;5094824;28;20020;-74
2021/05/06 15:43:36;;;;;;;3.40;1.17;;;;;;;;;;5094263;28;20039;-74
2021/05/06 15:46:03;;;;;;;3.22;0.70;;;;;;;;;;5094918;28;20027;-75
2021/05/06 15:48:29;;;;;;;1.88;0.70;;;;;;;;;;5093438;28;20028;-74
2021/05/06 15:50:55;;;;;;;1.25;0.50;;;;;;;;;;5092678;28;20144;-74
2021/05/06 15:53:21;;;;;;;0.85;0.45;;;;;;;;;;5093378;28;20021;-73
2021/05/06 15:55:47;;;;;;;3.13;0.70;;;;;;;;;;5093150;28;20365;-74
2021/05/06 15:58:14;;;;;;;4.43;1.27;;;;;;;;;;5094310;28;20464;-73
2021/05/06 16:00:40;;;;;;;4.85;1.13;;;;;;;;;;5094403;28;20028;-74
2021/05/06 16:03:10;;;;;;;1.95;0.65;;;;;;;;;;5094783;28;20368;-73
2021/05/06 16:05:41;;;;;;;0.65;0.52;;;;;;;;;;5094166;28;20024;-73
2021/05/06 16:08:08;;;;;;;2.23;1.13;;;;;;;;;;5093082;28;20024;-73
2021/05/06 16:10:34;;;;;;;2.15;0.75;;;;;;;;;;5094108;28;20261;-73
2021/05/06 16:13:00;;;;;;;3.33;0.70;;;;;;;;;;5093784;28;20056;-72
2021/05/06 16:15:28;;;;;;;1.38;0.60;;;;;;;;;;5093049;28;20537;-73
2021/05/06 16:17:54;;;;;;;1.20;0.60;;;;;;;;;;5094141;28;20129;-73
2021/05/06 16:20:22;;;;;;;2.85;0.70;;;;;;;;;;5093849;28;20422;-73
2021/05/06 16:22:49;;;;;;;2.42;0.90;;;;;;;;;;5094091;28;20111;-74
2021/05/06 16:25:16;;;;;;;0.70;0.45;;;;;;;;;;5094089;28;20016;-73
2021/05/06 16:27:44;;;;;;;3.47;0.80;;;;;;;;;;5093717;28;20024;-74
2021/05/06 16:30:11;;;;;;;1.75;0.70;;;;;;;;;;5093864;28;20024;-73
2021/05/06 16:32:39;;;;;;;1.90;0.65;;;;;;;;;;5093743;28;20028;-73
2021/05/06 16:35:09;;;;;;;2.83;0.90;;;;;;;;;;5093470;28;20069;-73
2021/05/06 16:38:18;;;;;;;2.17;0.70;;;;;;;;;;5093658;28;20030;-73
2021/05/06 16:40:48;;;;;;;1.67;0.60;;;;;;;;;;5087438;28;20036;-74
2021/05/06 16:43:35;;;;;;;2.20;0.88;;;;;;;;;;5092325;28;20052;-74
2021/05/06 16:46:03;;;;;;;2.17;1.00;;;;;;;;;;5091613;28;20055;-72
2021/05/06 16:48:29;;;;;;;2.33;0.80;;;;;;;;;;5091818;28;20392;-73
2021/05/06 16:50:55;;;;;;;3.25;0.85;;;;;;;;;;5093239;28;20508;-73
2021/05/06 16:53:21;;;;;;;1.65;0.93;;;;;;;;;;5093414;28;20024;-73
2021/05/06 16:55:48;;;;;;;1.92;1.08;;;;;;;;;;5091736;28;20096;-74
2021/05/06 16:58:14;;;;;;;2.03;0.73;;;;;;;;;;5093411;28;20032;-73
2021/05/06 17:00:41;;;;;;;3.25;0.77;;;;;;;;;;5092779;28;20043;-74
2021/05/06 17:03:07;;;;;;;3.40;0.80;;;;;;;;;;5092957;28;20512;-74
2021/05/06 17:05:34;;;;;;;1.88;0.65;;;;;;;;;;5092091;28;20031;-71
2021/05/06 17:08:01;;;;;;;1.95;0.90;;;;;;;;;;5091339;28;20032;-71
2021/05/06 17:10:27;;;;;;;1.27;0.80;;;;;;;;;;5091719;28;20020;-73
2021/05/06 17:12:53;;;;;;;2.83;1.10;;;;;;;;;;5093008;28;20048;-73
2021/05/06 17:15:20;;;;;;;1.77;0.70;;;;;;;;;;5091328;28;20063;-73
2021/05/06 17:17:47;;;;;;;1.27;0.63;;;;;;;;;;5093003;28;20020;-73
2021/05/06 17:20:14;;;;;;;1.60;0.93;;;;;;;;;;5093629;28;20020;-73
2021/05/06 17:22:43;;;;;;;3.47;1.33;;;;;;;;;;5091405;28;20032;-73
2021/05/06 17:25:11;;;;;;;3.25;1.10;;;;;;;;;;5093076;28;20027;-73
2021/05/06 17:27:37;;;;;;;4.50;1.30;;;;;;;;;;5092791;28;20091;-74
2021/05/06 17:30:04;;;;;;;5.10;1.50;;;;;;;;;;5092462;28;20111;-74
2021/05/06 17:32:32;;;;;;;3.60;1.45;;;;;;;;;;5091297;28;20032;-73
2021/05/06 17:34:58;;;;;;;4.75;1.00;;;;;;;;;;5091203;28;20027;-73
2021/05/06 17:37:24;;;;;;;7.28;2.75;;;;;;;;;;5090814;28;20081;-72
2021/05/06 17:39:50;;;;;;;3.92;1.42;;;;;;;;;;5092489;28;20369;-73
2021/05/06 17:42:16;;;;;;;3.30;1.90;;;;;;;;;;5092605;28;20020;-73
2021/05/06 17:44:43;;;;;;;6.40;1.75;;;;;;;;;;5090958;28;20115;-73
2021/05/06 17:47:09;;;;;;;9.35;2.92;;;;;;;;;;5092665;28;20028;-74
2021/05/06 17:50:40;;;;;;;15.43;7.57;;;;;;;;;;5130441;27;20116;-75
2021/05/06 17:53:06;;;;;;;17.63;8.48;;;;;;;;;;5110165;28;20028;-76
2021/05/06 17:55:32;;;;;;;16.77;7.45;;;;;;;;;;5110345;28;20027;-73
2021/05/06 17:57:58;;;;;;;17.20;6.03;;;;;;;;;;5109966;28;20089;-73
2021/05/06 18:00:24;;;;;;;9.85;3.67;;;;;;;;;;5110296;28;20051;-72
2021/05/06 18:02:51;;;;;;;8.25;3.15;;;;;;;;;;5092004;28;20074;-72
2021/05/06 18:05:17;;;;;;;5.88;2.67;;;;;;;;;;5109889;28;20018;-72
2021/05/06 18:07:43;;;;;;;8.55;2.83;;;;;;;;;;5091684;28;20020;-72
2021/05/06 18:10:35;;;;;;;14.02;2.95;;;;;;;;;;5110410;27;20377;-74
2021/05/06 18:13:01;;;;;;;6.03;2.40;;;;;;;;;;5109929;28;20387;-71
2021/05/06 18:15:28;;;;;;;8.98;4.05;;;;;;;;;;5110194;28;20051;-73
2021/05/06 18:17:56;;;;;;;9.27;2.95;;;;;;;;;;5110191;28;20032;-72
2021/05/06 18:20:22;;;;;;;6.18;2.95;;;;;;;;;;5109766;28;20019;-72
2021/05/06 18:22:49;;;;;;;5.25;2.40;;;;;;;;;;5108990;28;20024;-72
2021/05/06 18:25:15;;;;;;;4.45;2.22;;;;;;;;;;5109103;28;20026;-73
2021/05/06 18:27:42;;;;;;;4.65;2.30;;;;;;;;;;5109802;28;20030;-73
2021/05/06 18:30:10;;;;;;;3.65;1.98;;;;;;;;;;5109901;28;20468;-73
2021/05/06 18:32:37;;;;;;;4.63;1.90;;;;;;;;;;5108245;28;20024;-72
2021/05/06 18:35:04;;;;;;;4.35;1.58;;;;;;;;;;5108645;28;20020;-72
2021/05/06 18:37:31;;;;;;;2.05;1.10;;;;;;;;;;5109931;28;20026;-72
2021/05/06 18:39:57;;;;;;;3.03;1.63;;;;;;;;;;5109470;28;20016;-72
2021/05/06 18:42:24;;;;;;;3.33;1.48;;;;;;;;;;5109920;28;20023;-72
2021/05/06 18:44:50;;;;;;;2.90;1.52;;;;;;;;;;5109997;28;20055;-72
2021/05/06 18:47:23;;;;;;;4.55;1.98;;;;;;;;;;5109431;28;20034;-72
2021/05/06 18:49:50;;;;;;;4.60;1.70;;;;;;;;;;5109169;28;20024;-72
2021/05/06 18:52:17;;;;;;;5.00;1.52;;;;;;;;;;5109625;28;20081;-71
2021/05/06 18:54:44;;;;;;;5.07;1.73;;;;;;;;;;5107909;28;20034;-71
2021/05/06 18:57:10;;;;;;;4.50;1.67;;;;;;;;;;5109566;28;20024;-71
2021/05/06 18:59:36;;;;;;;3.28;1.30;;;;;;;;;;5109533;28;20517;-71
2021/05/06 19:02:02;;;;;;;3.53;1.52;;;;;;;;;;5107499;28;20031;-72
2021/05/06 19:04:29;;;;;;;6.82;3.58;;;;;;;;;;5108328;28;20030;-72
2021/05/06 19:06:55;;;;;;;8.07;3.90;;;;;;;;;;5109657;28;20099;-72
2021/05/06 19:09:21;;;;;;;5.88;1.92;;;;;;;;;;5108576;28;20070;-71